sensor_id;sensor_type;location;lat;lon;timestamp;temperature;humidity
75217;HTU21D;63800;51.972;5.682;2023-08-17T00:00:19;18.87;118.99
75217;HTU21D;63800;51.972;5.682;2023-08-17T00:02:45;19.10;118.99
75217;HTU21D;63800;51.972;5.682;2023-08-17T00:05:10;19.12;118.99
75217;HTU21D;63800;51.972;5.682;2023-08-17T00:07:36;19.08;118.99
75217;HTU21D;63800;51.972;5.682;2023-08-17T00:10:03;19.03;118.99
75217;HTU21D;63800;51.972;5.682;2023-08-17T00:12:28;19.13;118.99
75217;HTU21D;63800;51.972;5.682;2023-08-17T00:14:54;18.95;118.99
75217;HTU21D;63800;51.972;5.682;2023-08-17T00:17:20;19.12;118.99
75217;HTU21D;63800;51.972;5.682;2023-08-17T00:19:45;18.97;118.99
75217;HTU21D;63800;51.972;5.682;2023-08-17T00:22:11;19.05;118.99
75217;HTU21D;63800;51.972;5.682;2023-08-17T00:24:36;18.93;118.99
75217;HTU21D;63800;51.972;5.682;2023-08-17T00:27:02;18.95;118.99
75217;HTU21D;63800;51.972;5.682;2023-08-17T00:29:29;19.06;118.99
75217;HTU21D;63800;51.972;5.682;2023-08-17T00:31:54;19.09;118.99
75217;HTU21D;63800;51.972;5.682;2023-08-17T00:34:20;18.91;118.99
75217;HTU21D;63800;51.972;5.682;2023-08-17T00:36:45;18.68;118.99
75217;HTU21D;63800;51.972;5.682;2023-08-17T00:39:12;18.76;118.99
75217;HTU21D;63800;51.972;5.682;2023-08-17T00:41:37;18.97;118.99
75217;HTU21D;63800;51.972;5.682;2023-08-17T00:44:03;18.74;118.99
75217;HTU21D;63800;51.972;5.682;2023-08-17T00:46:29;18.99;118.99
75217;HTU21D;63800;51.972;5.682;2023-08-17T00:48:55;18.88;118.99
75217;HTU21D;63800;51.972;5.682;2023-08-17T00:51:23;18.70;118.99
75217;HTU21D;63800;51.972;5.682;2023-08-17T00:53:50;18.63;118.99
75217;HTU21D;63800;51.972;5.682;2023-08-17T00:56:16;18.68;118.99
75217;HTU21D;63800;51.972;5.682;2023-08-17T00:58:42;18.78;118.99
75217;HTU21D;63800;51.972;5.682;2023-08-17T01:01:08;18.57;118.99
75217;HTU21D;63800;51.972;5.682;2023-08-17T01:03:34;18.54;118.99
75217;HTU21D;63800;51.972;5.682;2023-08-17T01:05:59;18.53;118.99
75217;HTU21D;63800;51.972;5.682;2023-08-17T01:08:28;18.62;118.99
75217;HTU21D;63800;51.972;5.682;2023-08-17T01:11:17;18.56;118.99
75217;HTU21D;63800;51.972;5.682;2023-08-17T01:14:17;18.83;118.99
75217;HTU21D;63800;51.972;5.682;2023-08-17T01:17:12;18.68;118.99
75217;HTU21D;63800;51.972;5.682;2023-08-17T01:19:40;18.73;118.99
75217;HTU21D;63800;51.972;5.682;2023-08-17T01:22:08;18.68;118.99
75217;HTU21D;63800;51.972;5.682;2023-08-17T01:24:35;18.44;118.99
75217;HTU21D;63800;51.972;5.682;2023-08-17T01:27:01;18.38;118.99
75217;HTU21D;63800;51.972;5.682;2023-08-17T01:29:26;18.21;118.99
75217;HTU21D;63800;51.972;5.682;2023-08-17T01:32:09;18.08;118.99
75217;HTU21D;63800;51.972;5.682;2023-08-17T01:34:49;18.26;118.99
75217;HTU21D;63800;51.972;5.682;2023-08-17T01:37:18;18.02;118.99
75217;HTU21D;63800;51.972;5.682;2023-08-17T01:39:49;18.03;118.99
75217;HTU21D;63800;51.972;5.682;2023-08-17T01:42:16;17.98;118.99
75217;HTU21D;63800;51.972;5.682;2023-08-17T01:44:41;17.81;118.99
75217;HTU21D;63800;51.972;5.682;2023-08-17T01:47:07;17.84;118.99
75217;HTU21D;63800;51.972;5.682;2023-08-17T01:49:32;17.77;118.99
75217;HTU21D;63800;51.972;5.682;2023-08-17T01:51:58;17.76;118.99
75217;HTU21D;63800;51.972;5.682;2023-08-17T01:54:23;17.65;118.99
75217;HTU21D;63800;51.972;5.682;2023-08-17T01:56:49;17.55;118.99
75217;HTU21D;63800;51.972;5.682;2023-08-17T01:59:14;17.73;118.99
75217;HTU21D;63800;51.972;5.682;2023-08-17T02:01:40;17.65;118.99
75217;HTU21D;63800;51.972;5.682;2023-08-17T02:04:06;17.88;118.99
75217;HTU21D;63800;51.972;5.682;2023-08-17T02:06:31;17.61;118.99
75217;HTU21D;63800;51.972;5.682;2023-08-17T02:08:58;17.66;118.99
75217;HTU21D;63800;51.972;5.682;2023-08-17T02:11:23;17.92;118.99
75217;HTU21D;63800;51.972;5.682;2023-08-17T02:13:49;17.66;118.99
75217;HTU21D;63800;51.972;5.682;2023-08-17T02:16:14;17.54;118.99
75217;HTU21D;63800;51.972;5.682;2023-08-17T02:18:39;17.56;118.99
75217;HTU21D;63800;51.972;5.682;2023-08-17T02:21:05;17.59;118.99
75217;HTU21D;63800;51.972;5.682;2023-08-17T02:23:30;17.75;118.99
75217;HTU21D;63800;51.972;5.682;2023-08-17T02:25:56;18.00;118.99
75217;HTU21D;63800;51.972;5.682;2023-08-17T02:28:21;17.66;118.99
75217;HTU21D;63800;51.972;5.682;2023-08-17T02:30:46;17.78;118.99
75217;HTU21D;63800;51.972;5.682;2023-08-17T02:33:13;17.83;118.99
75217;HTU21D;63800;51.972;5.682;2023-08-17T02:35:38;17.69;118.99
75217;HTU21D;63800;51.972;5.682;2023-08-17T02:38:04;17.51;118.99
75217;HTU21D;63800;51.972;5.682;2023-08-17T02:40:29;17.49;118.99
75217;HTU21D;63800;51.972;5.682;2023-08-17T02:42:54;17.48;118.99
75217;HTU21D;63800;51.972;5.682;2023-08-17T02:45:20;17.58;118.99
75217;HTU21D;63800;51.972;5.682;2023-08-17T02:47:45;17.56;118.99
75217;HTU21D;63800;51.972;5.682;2023-08-17T02:50:11;17.41;118.99
75217;HTU21D;63800;51.972;5.682;2023-08-17T02:52:36;17.56;118.99
75217;HTU21D;63800;51.972;5.682;2023-08-17T02:55:02;17.54;118.99
75217;HTU21D;63800;51.972;5.682;2023-08-17T02:57:28;17.50;118.99
75217;HTU21D;63800;51.972;5.682;2023-08-17T02:59:53;17.58;118.99
75217;HTU21D;63800;51.972;5.682;2023-08-17T03:02:18;17.45;118.99
75217;HTU21D;63800;51.972;5.682;2023-08-17T03:04:44;17.89;118.99
75217;HTU21D;63800;51.972;5.682;2023-08-17T03:07:09;17.66;118.99
75217;HTU21D;63800;51.972;5.682;2023-08-17T03:09:35;17.72;118.99
75217;HTU21D;63800;51.972;5.682;2023-08-17T03:12:00;17.68;118.99
75217;HTU21D;63800;51.972;5.682;2023-08-17T03:14:25;17.78;118.99
75217;HTU21D;63800;51.972;5.682;2023-08-17T03:16:51;17.67;118.99
75217;HTU21D;63800;51.972;5.682;2023-08-17T03:19:16;17.55;118.99
75217;HTU21D;63800;51.972;5.682;2023-08-17T03:21:42;17.73;118.99
75217;HTU21D;63800;51.972;5.682;2023-08-17T03:24:08;17.79;118.99
75217;HTU21D;63800;51.972;5.682;2023-08-17T03:26:33;17.55;118.99
75217;HTU21D;63800;51.972;5.682;2023-08-17T03:28:59;17.58;118.99
75217;HTU21D;63800;51.972;5.682;2023-08-17T03:31:24;17.44;118.99
75217;HTU21D;63800;51.972;5.682;2023-08-17T03:33:50;17.40;118.99
75217;HTU21D;63800;51.972;5.682;2023-08-17T03:36:15;17.41;118.99
75217;HTU21D;63800;51.972;5.682;2023-08-17T03:38:41;17.64;118.99
75217;HTU21D;63800;51.972;5.682;2023-08-17T03:41:06;17.54;118.99
75217;HTU21D;63800;51.972;5.682;2023-08-17T03:43:32;17.52;118.99
75217;HTU21D;63800;51.972;5.682;2023-08-17T03:45:58;17.40;118.99
75217;HTU21D;63800;51.972;5.682;2023-08-17T03:48:23;17.53;118.99
75217;HTU21D;63800;51.972;5.682;2023-08-17T03:50:53;17.49;118.99
75217;HTU21D;63800;51.972;5.682;2023-08-17T03:53:19;17.73;118.99
75217;HTU21D;63800;51.972;5.682;2023-08-17T03:55:48;17.36;118.99
75217;HTU21D;63800;51.972;5.682;2023-08-17T03:58:14;17.56;118.99
75217;HTU21D;63800;51.972;5.682;2023-08-17T04:00:40;17.59;118.99
75217;HTU21D;63800;51.972;5.682;2023-08-17T04:03:06;17.68;118.99
75217;HTU21D;63800;51.972;5.682;2023-08-17T04:05:32;17.31;118.99
75217;HTU21D;63800;51.972;5.682;2023-08-17T04:07:58;17.29;118.99
75217;HTU21D;63800;51.972;5.682;2023-08-17T04:10:27;17.05;118.99
75217;HTU21D;63800;51.972;5.682;2023-08-17T04:12:52;17.02;118.99
75217;HTU21D;63800;51.972;5.682;2023-08-17T04:15:17;16.98;118.99
75217;HTU21D;63800;51.972;5.682;2023-08-17T04:17:43;17.03;118.99
75217;HTU21D;63800;51.972;5.682;2023-08-17T04:20:09;17.16;118.99
75217;HTU21D;63800;51.972;5.682;2023-08-17T04:22:34;16.90;118.99
75217;HTU21D;63800;51.972;5.682;2023-08-17T04:25:00;17.05;118.99
75217;HTU21D;63800;51.972;5.682;2023-08-17T04:27:25;17.03;118.99
75217;HTU21D;63800;51.972;5.682;2023-08-17T04:29:51;16.86;118.99
75217;HTU21D;63800;51.972;5.682;2023-08-17T04:32:16;16.88;118.99
75217;HTU21D;63800;51.972;5.682;2023-08-17T04:34:42;16.66;118.99
75217;HTU21D;63800;51.972;5.682;2023-08-17T04:37:08;16.79;118.99
75217;HTU21D;63800;51.972;5.682;2023-08-17T04:39:33;16.74;118.99
75217;HTU21D;63800;51.972;5.682;2023-08-17T04:41:59;16.62;118.99
75217;HTU21D;63800;51.972;5.682;2023-08-17T04:44:24;16.66;118.99
75217;HTU21D;63800;51.972;5.682;2023-08-17T04:46:50;16.90;118.99
75217;HTU21D;63800;51.972;5.682;2023-08-17T04:49:15;16.75;118.99
75217;HTU21D;63800;51.972;5.682;2023-08-17T04:51:40;16.90;118.99
75217;HTU21D;63800;51.972;5.682;2023-08-17T04:54:06;16.84;118.99
75217;HTU21D;63800;51.972;5.682;2023-08-17T04:56:31;16.70;118.99
75217;HTU21D;63800;51.972;5.682;2023-08-17T04:58:57;16.78;118.99
75217;HTU21D;63800;51.972;5.682;2023-08-17T05:01:22;16.77;118.99
75217;HTU21D;63800;51.972;5.682;2023-08-17T05:03:48;16.91;118.99
75217;HTU21D;63800;51.972;5.682;2023-08-17T05:06:13;16.90;118.99
75217;HTU21D;63800;51.972;5.682;2023-08-17T05:08:39;16.86;118.99
75217;HTU21D;63800;51.972;5.682;2023-08-17T05:11:04;16.75;118.99
75217;HTU21D;63800;51.972;5.682;2023-08-17T05:13:30;16.76;118.99
75217;HTU21D;63800;51.972;5.682;2023-08-17T05:15:55;16.74;118.99
75217;HTU21D;63800;51.972;5.682;2023-08-17T05:18:21;16.70;118.99
75217;HTU21D;63800;51.972;5.682;2023-08-17T05:20:46;16.87;118.99
75217;HTU21D;63800;51.972;5.682;2023-08-17T05:23:12;16.86;118.99
75217;HTU21D;63800;51.972;5.682;2023-08-17T05:25:37;16.94;118.99
75217;HTU21D;63800;51.972;5.682;2023-08-17T05:28:03;17.15;118.99
75217;HTU21D;63800;51.972;5.682;2023-08-17T05:30:28;16.93;118.99
75217;HTU21D;63800;51.972;5.682;2023-08-17T05:32:54;16.94;118.99
75217;HTU21D;63800;51.972;5.682;2023-08-17T05:35:19;16.95;118.99
75217;HTU21D;63800;51.972;5.682;2023-08-17T05:37:45;16.94;118.99
75217;HTU21D;63800;51.972;5.682;2023-08-17T05:40:11;16.92;118.99
75217;HTU21D;63800;51.972;5.682;2023-08-17T05:42:36;16.99;118.99
75217;HTU21D;63800;51.972;5.682;2023-08-17T05:45:02;16.90;118.99
75217;HTU21D;63800;51.972;5.682;2023-08-17T05:47:27;16.82;118.99
75217;HTU21D;63800;51.972;5.682;2023-08-17T05:49:53;16.84;118.99
75217;HTU21D;63800;51.972;5.682;2023-08-17T05:52:18;16.99;118.99
75217;HTU21D;63800;51.972;5.682;2023-08-17T05:54:44;17.14;118.99
75217;HTU21D;63800;51.972;5.682;2023-08-17T05:57:09;16.94;118.99
75217;HTU21D;63800;51.972;5.682;2023-08-17T05:59:35;17.07;118.99
75217;HTU21D;63800;51.972;5.682;2023-08-17T06:02:01;17.02;118.99
75217;HTU21D;63800;51.972;5.682;2023-08-17T06:04:26;17.04;118.99
75217;HTU21D;63800;51.972;5.682;2023-08-17T06:06:52;17.08;118.99
75217;HTU21D;63800;51.972;5.682;2023-08-17T06:09:17;16.94;118.99
75217;HTU21D;63800;51.972;5.682;2023-08-17T06:11:43;17.01;118.99
75217;HTU21D;63800;51.972;5.682;2023-08-17T06:14:08;17.09;118.99
75217;HTU21D;63800;51.972;5.682;2023-08-17T06:16:34;17.16;118.99
75217;HTU21D;63800;51.972;5.682;2023-08-17T06:18:59;17.24;118.99
75217;HTU21D;63800;51.972;5.682;2023-08-17T06:21:25;17.53;118.99
75217;HTU21D;63800;51.972;5.682;2023-08-17T06:23:50;17.54;118.99
75217;HTU21D;63800;51.972;5.682;2023-08-17T06:26:15;17.72;118.99
75217;HTU21D;63800;51.972;5.682;2023-08-17T06:28:41;17.91;118.99
75217;HTU21D;63800;51.972;5.682;2023-08-17T06:31:06;17.82;118.99
75217;HTU21D;63800;51.972;5.682;2023-08-17T06:33:32;17.97;118.99
75217;HTU21D;63800;51.972;5.682;2023-08-17T06:35:57;18.09;118.99
75217;HTU21D;63800;51.972;5.682;2023-08-17T06:38:23;18.18;118.99
75217;HTU21D;63800;51.972;5.682;2023-08-17T06:40:48;18.10;118.99
75217;HTU21D;63800;51.972;5.682;2023-08-17T06:43:14;18.33;118.99
75217;HTU21D;63800;51.972;5.682;2023-08-17T06:45:39;18.41;118.99
75217;HTU21D;63800;51.972;5.682;2023-08-17T06:48:05;18.51;118.99
75217;HTU21D;63800;51.972;5.682;2023-08-17T06:50:31;18.38;118.99
75217;HTU21D;63800;51.972;5.682;2023-08-17T06:52:56;18.44;118.99
75217;HTU21D;63800;51.972;5.682;2023-08-17T06:55:22;18.80;118.99
75217;HTU21D;63800;51.972;5.682;2023-08-17T06:57:47;18.74;118.99
75217;HTU21D;63800;51.972;5.682;2023-08-17T07:00:17;18.83;118.99
75217;HTU21D;63800;51.972;5.682;2023-08-17T07:02:46;18.66;118.99
75217;HTU21D;63800;51.972;5.682;2023-08-17T07:05:12;18.65;118.99
75217;HTU21D;63800;51.972;5.682;2023-08-17T07:07:38;18.78;118.99
75217;HTU21D;63800;51.972;5.682;2023-08-17T07:10:04;18.70;118.99
75217;HTU21D;63800;51.972;5.682;2023-08-17T07:12:30;18.58;118.99
75217;HTU21D;63800;51.972;5.682;2023-08-17T07:14:55;18.82;118.99
75217;HTU21D;63800;51.972;5.682;2023-08-17T07:17:21;18.85;118.99
75217;HTU21D;63800;51.972;5.682;2023-08-17T07:19:46;18.93;118.99
75217;HTU21D;63800;51.972;5.682;2023-08-17T07:22:11;19.00;118.99
75217;HTU21D;63800;51.972;5.682;2023-08-17T07:24:37;19.11;118.99
75217;HTU21D;63800;51.972;5.682;2023-08-17T07:27:03;19.16;118.99
75217;HTU21D;63800;51.972;5.682;2023-08-17T07:29:29;19.14;118.99
75217;HTU21D;63800;51.972;5.682;2023-08-17T07:31:54;19.13;118.99
75217;HTU21D;63800;51.972;5.682;2023-08-17T07:34:23;19.11;118.99
75217;HTU21D;63800;51.972;5.682;2023-08-17T07:36:49;19.21;118.99
75217;HTU21D;63800;51.972;5.682;2023-08-17T07:39:14;19.20;118.99
75217;HTU21D;63800;51.972;5.682;2023-08-17T07:41:39;19.26;118.99
75217;HTU21D;63800;51.972;5.682;2023-08-17T07:44:05;19.33;118.99
75217;HTU21D;63800;51.972;5.682;2023-08-17T07:46:30;19.42;118.99
75217;HTU21D;63800;51.972;5.682;2023-08-17T07:48:56;19.36;118.99
75217;HTU21D;63800;51.972;5.682;2023-08-17T07:51:21;19.38;118.99
75217;HTU21D;63800;51.972;5.682;2023-08-17T07:53:47;19.36;118.99
75217;HTU21D;63800;51.972;5.682;2023-08-17T07:56:12;19.41;118.99
75217;HTU21D;63800;51.972;5.682;2023-08-17T07:58:38;19.68;118.99
75217;HTU21D;63800;51.972;5.682;2023-08-17T08:01:04;19.81;118.99
75217;HTU21D;63800;51.972;5.682;2023-08-17T08:03:30;19.81;118.99
75217;HTU21D;63800;51.972;5.682;2023-08-17T08:05:56;19.77;118.99
75217;HTU21D;63800;51.972;5.682;2023-08-17T08:08:21;19.72;118.99
75217;HTU21D;63800;51.972;5.682;2023-08-17T08:10:47;19.83;118.99
75217;HTU21D;63800;51.972;5.682;2023-08-17T08:13:12;20.07;118.99
75217;HTU21D;63800;51.972;5.682;2023-08-17T08:15:38;20.05;118.99
75217;HTU21D;63800;51.972;5.682;2023-08-17T08:18:03;20.00;118.99
75217;HTU21D;63800;51.972;5.682;2023-08-17T08:20:29;20.07;118.99
75217;HTU21D;63800;51.972;5.682;2023-08-17T08:22:55;20.11;118.99
75217;HTU21D;63800;51.972;5.682;2023-08-17T08:25:20;19.75;118.99
75217;HTU21D;63800;51.972;5.682;2023-08-17T08:27:45;19.69;118.99
75217;HTU21D;63800;51.972;5.682;2023-08-17T08:30:11;19.87;118.99
75217;HTU21D;63800;51.972;5.682;2023-08-17T08:32:36;20.09;118.99
75217;HTU21D;63800;51.972;5.682;2023-08-17T08:35:02;20.35;118.99
75217;HTU21D;63800;51.972;5.682;2023-08-17T08:37:28;20.49;118.99
75217;HTU21D;63800;51.972;5.682;2023-08-17T08:39:54;20.30;118.99
75217;HTU21D;63800;51.972;5.682;2023-08-17T08:42:21;20.00;118.99
75217;HTU21D;63800;51.972;5.682;2023-08-17T08:44:47;19.71;118.99
75217;HTU21D;63800;51.972;5.682;2023-08-17T08:47:13;20.00;118.99
75217;HTU21D;63800;51.972;5.682;2023-08-17T08:49:40;19.87;118.99
75217;HTU21D;63800;51.972;5.682;2023-08-17T08:52:12;19.83;118.99
75217;HTU21D;63800;51.972;5.682;2023-08-17T08:54:38;19.59;118.99
75217;HTU21D;63800;51.972;5.682;2023-08-17T08:57:08;19.35;118.99
75217;HTU21D;63800;51.972;5.682;2023-08-17T08:59:39;19.47;118.99
75217;HTU21D;63800;51.972;5.682;2023-08-17T09:02:14;19.40;118.99
75217;HTU21D;63800;51.972;5.682;2023-08-17T09:04:40;19.38;118.99
75217;HTU21D;63800;51.972;5.682;2023-08-17T09:07:06;19.33;118.99
75217;HTU21D;63800;51.972;5.682;2023-08-17T09:09:32;19.37;118.99
75217;HTU21D;63800;51.972;5.682;2023-08-17T09:11:59;19.31;118.99
75217;HTU21D;63800;51.972;5.682;2023-08-17T09:14:24;19.57;118.99
75217;HTU21D;63800;51.972;5.682;2023-08-17T09:16:50;19.50;118.99
75217;HTU21D;63800;51.972;5.682;2023-08-17T09:19:15;19.47;118.99
75217;HTU21D;63800;51.972;5.682;2023-08-17T09:21:41;19.69;118.99
75217;HTU21D;63800;51.972;5.682;2023-08-17T09:24:07;19.83;118.99
75217;HTU21D;63800;51.972;5.682;2023-08-17T09:26:32;19.74;118.99
75217;HTU21D;63800;51.972;5.682;2023-08-17T09:28:59;19.59;118.99
75217;HTU21D;63800;51.972;5.682;2023-08-17T09:31:24;19.72;118.99
75217;HTU21D;63800;51.972;5.682;2023-08-17T09:33:51;19.76;118.99
75217;HTU21D;63800;51.972;5.682;2023-08-17T09:36:23;19.59;118.99
75217;HTU21D;63800;51.972;5.682;2023-08-17T09:38:50;19.55;118.99
75217;HTU21D;63800;51.972;5.682;2023-08-17T09:41:17;19.50;118.99
75217;HTU21D;63800;51.972;5.682;2023-08-17T09:43:42;19.67;118.99
75217;HTU21D;63800;51.972;5.682;2023-08-17T09:46:09;19.56;118.99
75217;HTU21D;63800;51.972;5.682;2023-08-17T09:48:34;19.47;118.99
75217;HTU21D;63800;51.972;5.682;2023-08-17T09:51:01;19.70;118.99
75217;HTU21D;63800;51.972;5.682;2023-08-17T09:53:27;19.55;118.99
75217;HTU21D;63800;51.972;5.682;2023-08-17T09:55:53;19.71;118.99
75217;HTU21D;63800;51.972;5.682;2023-08-17T09:58:19;19.83;118.99
75217;HTU21D;63800;51.972;5.682;2023-08-17T10:00:49;19.87;118.99
75217;HTU21D;63800;51.972;5.682;2023-08-17T10:03:17;19.82;118.99
75217;HTU21D;63800;51.972;5.682;2023-08-17T10:05:45;20.10;118.99
75217;HTU21D;63800;51.972;5.682;2023-08-17T10:08:11;20.15;118.99
75217;HTU21D;63800;51.972;5.682;2023-08-17T10:10:40;20.43;118.99
75217;HTU21D;63800;51.972;5.682;2023-08-17T10:13:12;20.42;118.99
75217;HTU21D;63800;51.972;5.682;2023-08-17T10:15:48;20.27;118.99
75217;HTU21D;63800;51.972;5.682;2023-08-17T10:21:01;20.16;118.99
75217;HTU21D;63800;51.972;5.682;2023-08-17T10:23:27;20.20;118.99
75217;HTU21D;63800;51.972;5.682;2023-08-17T10:25:53;20.17;118.99
75217;HTU21D;63800;51.972;5.682;2023-08-17T10:28:20;20.30;118.99
75217;HTU21D;63800;51.972;5.682;2023-08-17T10:30:47;20.31;118.99
75217;HTU21D;63800;51.972;5.682;2023-08-17T10:33:14;20.28;118.99
75217;HTU21D;63800;51.972;5.682;2023-08-17T10:35:41;20.16;118.99
75217;HTU21D;63800;51.972;5.682;2023-08-17T10:38:07;20.46;118.99
75217;HTU21D;63800;51.972;5.682;2023-08-17T10:40:37;20.51;118.99
75217;HTU21D;63800;51.972;5.682;2023-08-17T10:43:03;20.70;118.99
75217;HTU21D;63800;51.972;5.682;2023-08-17T10:45:34;20.80;118.99
75217;HTU21D;63800;51.972;5.682;2023-08-17T10:50:32;21.03;118.99
75217;HTU21D;63800;51.972;5.682;2023-08-17T10:53:12;21.13;118.99
75217;HTU21D;63800;51.972;5.682;2023-08-17T10:55:40;21.27;118.99
75217;HTU21D;63800;51.972;5.682;2023-08-17T10:58:06;21.46;118.99
75217;HTU21D;63800;51.972;5.682;2023-08-17T11:00:39;21.31;118.99
75217;HTU21D;63800;51.972;5.682;2023-08-17T11:03:07;21.13;118.99
75217;HTU21D;63800;51.972;5.682;2023-08-17T11:07:59;20.84;118.99
75217;HTU21D;63800;51.972;5.682;2023-08-17T11:12:53;20.44;118.99
75217;HTU21D;63800;51.972;5.682;2023-08-17T11:15:23;20.61;118.99
75217;HTU21D;63800;51.972;5.682;2023-08-17T11:17:48;20.46;118.99
75217;HTU21D;63800;51.972;5.682;2023-08-17T11:20:13;20.41;118.99
75217;HTU21D;63800;51.972;5.682;2023-08-17T11:22:39;20.45;118.99
75217;HTU21D;63800;51.972;5.682;2023-08-17T11:25:05;20.84;118.99
75217;HTU21D;63800;51.972;5.682;2023-08-17T11:27:31;20.85;118.99
75217;HTU21D;63800;51.972;5.682;2023-08-17T11:29:57;20.72;118.99
75217;HTU21D;63800;51.972;5.682;2023-08-17T11:32:22;20.71;118.99
75217;HTU21D;63800;51.972;5.682;2023-08-17T11:34:48;21.00;118.99
75217;HTU21D;63800;51.972;5.682;2023-08-17T11:37:16;20.99;118.99
75217;HTU21D;63800;51.972;5.682;2023-08-17T11:39:41;21.03;118.99
75217;HTU21D;63800;51.972;5.682;2023-08-17T11:42:07;20.86;118.99
75217;HTU21D;63800;51.972;5.682;2023-08-17T11:44:33;20.85;118.99
75217;HTU21D;63800;51.972;5.682;2023-08-17T11:46:58;20.43;118.99
75217;HTU21D;63800;51.972;5.682;2023-08-17T11:49:24;20.58;118.99
75217;HTU21D;63800;51.972;5.682;2023-08-17T11:51:51;20.71;118.99
75217;HTU21D;63800;51.972;5.682;2023-08-17T11:54:16;20.88;118.99
75217;HTU21D;63800;51.972;5.682;2023-08-17T11:56:42;20.71;118.99
75217;HTU21D;63800;51.972;5.682;2023-08-17T11:59:11;20.64;118.99
75217;HTU21D;63800;51.972;5.682;2023-08-17T12:01:43;20.85;118.99
75217;HTU21D;63800;51.972;5.682;2023-08-17T12:04:09;20.71;118.99
75217;HTU21D;63800;51.972;5.682;2023-08-17T12:06:36;20.62;118.99
75217;HTU21D;63800;51.972;5.682;2023-08-17T12:09:04;20.78;118.99
75217;HTU21D;63800;51.972;5.682;2023-08-17T12:11:30;20.75;118.99
75217;HTU21D;63800;51.972;5.682;2023-08-17T12:13:56;20.74;118.99
75217;HTU21D;63800;51.972;5.682;2023-08-17T12:16:23;20.62;118.99
75217;HTU21D;63800;51.972;5.682;2023-08-17T12:18:51;20.83;118.99
75217;HTU21D;63800;51.972;5.682;2023-08-17T12:21:20;20.72;118.99
75217;HTU21D;63800;51.972;5.682;2023-08-17T12:23:47;21.01;118.99
75217;HTU21D;63800;51.972;5.682;2023-08-17T12:26:21;20.86;118.99
75217;HTU21D;63800;51.972;5.682;2023-08-17T12:28:47;20.68;118.99
75217;HTU21D;63800;51.972;5.682;2023-08-17T12:31:14;21.03;118.99
75217;HTU21D;63800;51.972;5.682;2023-08-17T12:33:39;20.94;118.99
75217;HTU21D;63800;51.972;5.682;2023-08-17T12:36:05;20.75;118.99
75217;HTU21D;63800;51.972;5.682;2023-08-17T12:38:31;20.77;118.99
75217;HTU21D;63800;51.972;5.682;2023-08-17T12:40:57;21.03;118.99
75217;HTU21D;63800;51.972;5.682;2023-08-17T12:43:22;21.20;118.99
75217;HTU21D;63800;51.972;5.682;2023-08-17T12:45:48;21.39;118.99
75217;HTU21D;63800;51.972;5.682;2023-08-17T12:48:13;21.59;118.99
75217;HTU21D;63800;51.972;5.682;2023-08-17T12:50:39;21.59;118.99
75217;HTU21D;63800;51.972;5.682;2023-08-17T12:53:04;21.55;118.99
75217;HTU21D;63800;51.972;5.682;2023-08-17T12:55:30;21.31;118.99
75217;HTU21D;63800;51.972;5.682;2023-08-17T12:57:55;21.40;118.99
75217;HTU21D;63800;51.972;5.682;2023-08-17T13:00:21;21.34;118.99
75217;HTU21D;63800;51.972;5.682;2023-08-17T13:02:46;21.21;118.99
75217;HTU21D;63800;51.972;5.682;2023-08-17T13:05:14;21.00;118.99
75217;HTU21D;63800;51.972;5.682;2023-08-17T13:07:39;20.62;118.99
75217;HTU21D;63800;51.972;5.682;2023-08-17T13:10:05;20.79;118.99
75217;HTU21D;63800;51.972;5.682;2023-08-17T13:12:31;20.86;118.99
75217;HTU21D;63800;51.972;5.682;2023-08-17T13:14:56;20.76;118.99
75217;HTU21D;63800;51.972;5.682;2023-08-17T13:17:21;20.72;118.99
75217;HTU21D;63800;51.972;5.682;2023-08-17T13:19:47;20.79;118.99
75217;HTU21D;63800;51.972;5.682;2023-08-17T13:22:12;20.62;118.99
75217;HTU21D;63800;51.972;5.682;2023-08-17T13:24:38;20.68;118.99
75217;HTU21D;63800;51.972;5.682;2023-08-17T13:27:03;20.66;118.99
75217;HTU21D;63800;51.972;5.682;2023-08-17T13:29:29;20.59;118.99
75217;HTU21D;63800;51.972;5.682;2023-08-17T13:31:54;20.71;118.99
75217;HTU21D;63800;51.972;5.682;2023-08-17T13:34:20;20.63;118.99
75217;HTU21D;63800;51.972;5.682;2023-08-17T13:36:45;20.56;118.99
75217;HTU21D;63800;51.972;5.682;2023-08-17T13:39:10;20.51;118.99
75217;HTU21D;63800;51.972;5.682;2023-08-17T13:41:36;20.45;118.99
75217;HTU21D;63800;51.972;5.682;2023-08-17T13:44:01;20.42;118.99
75217;HTU21D;63800;51.972;5.682;2023-08-17T13:46:27;20.34;118.99
75217;HTU21D;63800;51.972;5.682;2023-08-17T13:48:53;20.40;118.99
75217;HTU21D;63800;51.972;5.682;2023-08-17T13:51:19;20.51;118.99
75217;HTU21D;63800;51.972;5.682;2023-08-17T13:53:44;20.65;118.99
75217;HTU21D;63800;51.972;5.682;2023-08-17T13:56:10;20.62;118.99
75217;HTU21D;63800;51.972;5.682;2023-08-17T13:58:35;20.35;118.99
75217;HTU21D;63800;51.972;5.682;2023-08-17T14:01:01;20.45;118.99
75217;HTU21D;63800;51.972;5.682;2023-08-17T14:03:26;20.31;118.99
75217;HTU21D;63800;51.972;5.682;2023-08-17T14:05:52;20.26;118.99
75217;HTU21D;63800;51.972;5.682;2023-08-17T14:08:17;20.29;118.99
75217;HTU21D;63800;51.972;5.682;2023-08-17T14:10:43;20.31;118.99
75217;HTU21D;63800;51.972;5.682;2023-08-17T14:13:08;20.18;118.99
75217;HTU21D;63800;51.972;5.682;2023-08-17T14:15:33;20.29;118.99
75217;HTU21D;63800;51.972;5.682;2023-08-17T14:17:59;20.31;118.99
75217;HTU21D;63800;51.972;5.682;2023-08-17T14:20:24;20.42;118.99
75217;HTU21D;63800;51.972;5.682;2023-08-17T14:22:51;20.73;118.99
75217;HTU21D;63800;51.972;5.682;2023-08-17T14:25:16;20.69;118.99
75217;HTU21D;63800;51.972;5.682;2023-08-17T14:27:42;20.75;118.99
75217;HTU21D;63800;51.972;5.682;2023-08-17T14:30:07;20.63;118.99
75217;HTU21D;63800;51.972;5.682;2023-08-17T14:32:33;20.47;118.99
75217;HTU21D;63800;51.972;5.682;2023-08-17T14:34:58;20.50;118.99
75217;HTU21D;63800;51.972;5.682;2023-08-17T14:37:24;20.58;118.99
75217;HTU21D;63800;51.972;5.682;2023-08-17T14:39:49;20.37;118.99
75217;HTU21D;63800;51.972;5.682;2023-08-17T14:42:14;20.31;118.99
75217;HTU21D;63800;51.972;5.682;2023-08-17T14:44:40;20.34;118.99
75217;HTU21D;63800;51.972;5.682;2023-08-17T14:47:05;20.63;118.99
75217;HTU21D;63800;51.972;5.682;2023-08-17T14:49:31;20.56;118.99
75217;HTU21D;63800;51.972;5.682;2023-08-17T14:51:56;20.50;118.99
75217;HTU21D;63800;51.972;5.682;2023-08-17T14:54:22;20.63;118.99
75217;HTU21D;63800;51.972;5.682;2023-08-17T14:56:47;20.64;118.99
75217;HTU21D;63800;51.972;5.682;2023-08-17T14:59:12;20.78;118.99
75217;HTU21D;63800;51.972;5.682;2023-08-17T15:01:38;20.85;118.99
75217;HTU21D;63800;51.972;5.682;2023-08-17T15:04:04;20.80;118.99
75217;HTU21D;63800;51.972;5.682;2023-08-17T15:06:29;20.74;118.99